GIA284 OMDB-WIII
Flight info
| Callsign | GIA284 |
|---|---|
| Flight time | N/A |
| Altitude | 37000 |
| Route | IVURO M428 MUNGA A777 VAXIM P307 PARAR N571 BIKEN/N0492F390 N571 GUNIP M630 BOBAG P501 ANITO B470 BUNIK |
| Aircraft | B789/H-SDE1E2E3FGHIJ2J3J4J5M1RWXY/LB1D1 |
Departure
| Time | 2026-04-26 17:46 |
|---|---|
| Airport | Dubai International Airport (OMDB) |
Arrival
| Time | N/A |
|---|---|
| Airport | Soekarno-Hatta International Airport (WIII) |
| Time | Latitude | Longitude | Altitude | Speed | Heading |
|---|---|---|---|---|---|
| 2026-04-26 17:39 | 25.24364 | 55.37841 | 48 ft | 0 kts | 34° |
| 2026-04-26 17:42 | 25.24366 | 55.37842 | 48 ft | 1 kts | 34° |
| 2026-04-26 17:42 | 25.24376 | 55.37850 | 48 ft | 4 kts | 34° |
| 2026-04-26 17:42 | 25.24420 | 55.37883 | 48 ft | 11 kts | 34° |
| 2026-04-26 17:42 | 25.24498 | 55.37943 | 49 ft | 17 kts | 34° |
| 2026-04-26 17:43 | 25.24603 | 55.38022 | 49 ft | 17 kts | 32° |
| 2026-04-26 17:43 | 25.24651 | 55.38055 | 49 ft | 0 kts | 31° |
| 2026-04-26 17:43 | 25.24663 | 55.38063 | 49 ft | 5 kts | 31° |
| 2026-04-26 17:43 | 25.24711 | 55.38094 | 49 ft | 11 kts | 27° |
| 2026-04-26 17:44 | 25.24781 | 55.38076 | 48 ft | 11 kts | 312° |
| 2026-04-26 17:44 | 25.24825 | 55.38003 | 46 ft | 12 kts | 302° |
| 2026-04-26 17:44 | 25.24836 | 55.37983 | 46 ft | 0 kts | 302° |
| 2026-04-26 17:44 | 25.24837 | 55.37982 | 46 ft | 2 kts | 302° |
| 2026-04-26 17:45 | 25.24887 | 55.37892 | 44 ft | 35 kts | 301° |
| 2026-04-26 17:45 | 25.25117 | 55.37477 | 35 ft | 91 kts | 301° |
| 2026-04-26 17:45 | 25.25536 | 55.36723 | 28 ft | 138 kts | 301° |
| 2026-04-26 17:45 | 25.26106 | 55.35693 | 58 ft | 173 kts | 301° |
| 2026-04-26 17:46 | 25.26751 | 55.34578 | 587 ft | 173 kts | 303° |
| 2026-04-26 17:46 | 25.27415 | 55.33430 | 948 ft | 181 kts | 298° |
| 2026-04-26 17:46 | 25.28018 | 55.32237 | 1453 ft | 180 kts | 300° |
| 2026-04-26 17:46 | 25.28653 | 55.31082 | 2086 ft | 172 kts | 301° |
| 2026-04-26 17:47 | 25.29325 | 55.30092 | 2456 ft | 178 kts | 315° |
| 2026-04-26 17:47 | 25.30071 | 55.29643 | 2650 ft | 185 kts | 335° |
| 2026-04-26 17:47 | 25.31826 | 55.29510 | 3151 ft | 195 kts | 359° |
| 2026-04-26 17:47 | 25.33176 | 55.29568 | 3641 ft | 194 kts | 358° |
| 2026-04-26 17:48 | 25.34525 | 55.29596 | 4107 ft | 195 kts | 357° |
| 2026-04-26 17:48 | 25.35897 | 55.29623 | 4481 ft | 203 kts | 358° |
| 2026-04-26 17:48 | 25.37361 | 55.29656 | 4718 ft | 218 kts | 358° |
| 2026-04-26 17:48 | 25.38916 | 55.29742 | 5019 ft | 230 kts | 4° |
| 2026-04-26 17:49 | 25.40386 | 55.30571 | 5347 ft | 248 kts | 34° |
| 2026-04-26 17:49 | 25.41588 | 55.32043 | 5591 ft | 266 kts | 48° |
| 2026-04-26 17:49 | 25.42356 | 55.34011 | 5600 ft | 300 kts | 81° |
| 2026-04-26 17:49 | 25.42186 | 55.36309 | 6374 ft | 296 kts | 97° |
| 2026-04-26 17:50 | 25.41899 | 55.38548 | 7035 ft | 297 kts | 96° |
| 2026-04-26 17:50 | 25.41638 | 55.40826 | 7621 ft | 300 kts | 95° |
| 2026-04-26 17:50 | 25.41381 | 55.43126 | 8212 ft | 303 kts | 96° |
| 2026-04-26 17:50 | 25.41112 | 55.45450 | 8797 ft | 306 kts | 96° |
| 2026-04-26 17:51 | 25.40834 | 55.47791 | 9400 ft | 309 kts | 96° |